sensor_id;sensor_type;location;lat;lon;timestamp;temperature;humidity
262;DHT22;114;48.260;10.988;2022-08-01T00:00:33;19.10;2.40
262;DHT22;114;48.260;10.988;2022-08-01T00:02:59;19.10;2.90
262;DHT22;114;48.260;10.988;2022-08-01T00:05:25;19.10;2.90
262;DHT22;114;48.260;10.988;2022-08-01T00:07:51;19.10;2.90
262;DHT22;114;48.260;10.988;2022-08-01T00:10:17;19.10;3.30
262;DHT22;114;48.260;10.988;2022-08-01T00:12:45;19.00;3.70
262;DHT22;114;48.260;10.988;2022-08-01T00:15:13;19.00;3.10
262;DHT22;114;48.260;10.988;2022-08-01T00:17:40;19.10;3.60
262;DHT22;114;48.260;10.988;2022-08-01T00:20:11;19.00;3.40
262;DHT22;114;48.260;10.988;2022-08-01T00:22:37;19.00;4.10
262;DHT22;114;48.260;10.988;2022-08-01T00:25:04;18.90;4.70
262;DHT22;114;48.260;10.988;2022-08-01T00:27:30;18.80;4.70
262;DHT22;114;48.260;10.988;2022-08-01T00:29:57;18.80;5.10
262;DHT22;114;48.260;10.988;2022-08-01T00:32:23;18.80;5.80
262;DHT22;114;48.260;10.988;2022-08-01T00:34:48;18.70;6.30
262;DHT22;114;48.260;10.988;2022-08-01T00:37:17;18.60;6.80
262;DHT22;114;48.260;10.988;2022-08-01T00:39:43;18.60;7.40
262;DHT22;114;48.260;10.988;2022-08-01T00:42:10;18.60;6.80
262;DHT22;114;48.260;10.988;2022-08-01T00:44:36;18.60;7.90
262;DHT22;114;48.260;10.988;2022-08-01T00:47:03;18.50;7.90
262;DHT22;114;48.260;10.988;2022-08-01T00:49:30;18.50;8.70
262;DHT22;114;48.260;10.988;2022-08-01T00:51:56;18.30;10.40
262;DHT22;114;48.260;10.988;2022-08-01T00:54:25;18.20;12.80
262;DHT22;114;48.260;10.988;2022-08-01T00:56:52;18.10;14.90
262;DHT22;114;48.260;10.988;2022-08-01T00:59:18;17.90;16.60
262;DHT22;114;48.260;10.988;2022-08-01T01:01:45;17.80;17.70
262;DHT22;114;48.260;10.988;2022-08-01T01:04:11;17.70;19.00
262;DHT22;114;48.260;10.988;2022-08-01T01:06:48;17.60;20.70
262;DHT22;114;48.260;10.988;2022-08-01T01:09:35;17.50;22.70
262;DHT22;114;48.260;10.988;2022-08-01T01:14:55;17.30;28.00
262;DHT22;114;48.260;10.988;2022-08-01T01:17:37;17.20;29.20
262;DHT22;114;48.260;10.988;2022-08-01T01:20:05;17.10;32.30
262;DHT22;114;48.260;10.988;2022-08-01T01:25:26;16.90;35.50
262;DHT22;114;48.260;10.988;2022-08-01T01:28:31;16.80;36.50
262;DHT22;114;48.260;10.988;2022-08-01T01:30:58;16.80;37.70
262;DHT22;114;48.260;10.988;2022-08-01T01:33:27;16.70;37.60
262;DHT22;114;48.260;10.988;2022-08-01T01:36:03;16.70;36.40
262;DHT22;114;48.260;10.988;2022-08-01T01:38:34;16.90;31.10
262;DHT22;114;48.260;10.988;2022-08-01T01:41:02;17.10;25.00
262;DHT22;114;48.260;10.988;2022-08-01T01:43:30;17.30;22.60
262;DHT22;114;48.260;10.988;2022-08-01T01:46:01;17.40;20.60
262;DHT22;114;48.260;10.988;2022-08-01T01:48:28;17.50;17.00
262;DHT22;114;48.260;10.988;2022-08-01T01:50:54;17.70;14.60
262;DHT22;114;48.260;10.988;2022-08-01T01:53:22;17.80;13.30
262;DHT22;114;48.260;10.988;2022-08-01T01:55:52;17.80;12.50
262;DHT22;114;48.260;10.988;2022-08-01T01:58:19;17.80;12.70
262;DHT22;114;48.260;10.988;2022-08-01T02:00:47;17.80;12.90
262;DHT22;114;48.260;10.988;2022-08-01T02:03:14;17.80;13.00
262;DHT22;114;48.260;10.988;2022-08-01T02:05:41;17.90;13.60
262;DHT22;114;48.260;10.988;2022-08-01T02:08:10;17.70;14.70
262;DHT22;114;48.260;10.988;2022-08-01T02:10:37;17.70;15.00
262;DHT22;114;48.260;10.988;2022-08-01T02:13:05;17.60;15.60
262;DHT22;114;48.260;10.988;2022-08-01T02:15:33;17.60;16.20
262;DHT22;114;48.260;10.988;2022-08-01T02:18:01;17.60;15.80
262;DHT22;114;48.260;10.988;2022-08-01T02:20:30;17.60;15.00
262;DHT22;114;48.260;10.988;2022-08-01T02:23:01;17.60;14.60
262;DHT22;114;48.260;10.988;2022-08-01T02:25:50;17.60;14.40
262;DHT22;114;48.260;10.988;2022-08-01T02:28:32;17.60;14.80
262;DHT22;114;48.260;10.988;2022-08-01T02:31:07;17.50;15.40
262;DHT22;114;48.260;10.988;2022-08-01T02:33:43;17.50;15.40
262;DHT22;114;48.260;10.988;2022-08-01T02:36:11;17.40;16.00
262;DHT22;114;48.260;10.988;2022-08-01T02:38:42;17.50;14.70
262;DHT22;114;48.260;10.988;2022-08-01T02:41:12;17.50;14.10
262;DHT22;114;48.260;10.988;2022-08-01T02:43:43;17.60;14.00
262;DHT22;114;48.260;10.988;2022-08-01T02:46:18;17.60;13.30
262;DHT22;114;48.260;10.988;2022-08-01T02:48:47;17.70;12.50
262;DHT22;114;48.260;10.988;2022-08-01T02:51:16;17.60;12.40
262;DHT22;114;48.260;10.988;2022-08-01T02:53:44;17.60;12.40
262;DHT22;114;48.260;10.988;2022-08-01T02:56:11;17.70;11.20
262;DHT22;114;48.260;10.988;2022-08-01T02:58:39;17.60;11.50
262;DHT22;114;48.260;10.988;2022-08-01T03:01:07;17.60;11.40
262;DHT22;114;48.260;10.988;2022-08-01T03:03:36;17.70;11.30
262;DHT22;114;48.260;10.988;2022-08-01T03:06:03;17.70;10.80
262;DHT22;114;48.260;10.988;2022-08-01T03:08:30;17.70;10.30
262;DHT22;114;48.260;10.988;2022-08-01T03:10:57;17.70;10.90
262;DHT22;114;48.260;10.988;2022-08-01T03:13:25;17.70;10.70
262;DHT22;114;48.260;10.988;2022-08-01T03:15:54;17.70;10.60
262;DHT22;114;48.260;10.988;2022-08-01T03:18:21;17.70;10.70
262;DHT22;114;48.260;10.988;2022-08-01T03:20:50;17.70;10.10
262;DHT22;114;48.260;10.988;2022-08-01T03:23:18;17.80;9.50
262;DHT22;114;48.260;10.988;2022-08-01T03:25:46;17.70;9.50
262;DHT22;114;48.260;10.988;2022-08-01T03:28:16;17.70;9.40
262;DHT22;114;48.260;10.988;2022-08-01T03:30:43;17.70;9.80
262;DHT22;114;48.260;10.988;2022-08-01T03:33:09;17.70;9.80
262;DHT22;114;48.260;10.988;2022-08-01T03:35:46;17.60;9.70
262;DHT22;114;48.260;10.988;2022-08-01T03:38:16;17.60;10.10
262;DHT22;114;48.260;10.988;2022-08-01T03:41:15;17.60;10.30
262;DHT22;114;48.260;10.988;2022-08-01T03:43:51;17.60;9.60
262;DHT22;114;48.260;10.988;2022-08-01T03:46:21;17.70;9.50
262;DHT22;114;48.260;10.988;2022-08-01T03:48:48;17.70;8.90
262;DHT22;114;48.260;10.988;2022-08-01T03:51:18;17.70;9.00
262;DHT22;114;48.260;10.988;2022-08-01T03:53:45;17.80;8.20
262;DHT22;114;48.260;10.988;2022-08-01T03:56:13;17.80;7.50
262;DHT22;114;48.260;10.988;2022-08-01T03:58:48;17.80;7.30
262;DHT22;114;48.260;10.988;2022-08-01T04:01:15;17.90;6.60
262;DHT22;114;48.260;10.988;2022-08-01T04:03:42;18.50;4.30
262;DHT22;114;48.260;10.988;2022-08-01T04:06:08;18.70;2.30
262;DHT22;114;48.260;10.988;2022-08-01T04:08:39;18.60;2.10
262;DHT22;114;48.260;10.988;2022-08-01T04:11:05;18.70;2.50
262;DHT22;114;48.260;10.988;2022-08-01T04:13:33;18.60;3.40
262;DHT22;114;48.260;10.988;2022-08-01T04:15:59;18.80;1.00
262;DHT22;114;48.260;10.988;2022-08-01T04:18:24;18.70;1.00
262;DHT22;114;48.260;10.988;2022-08-01T04:20:50;18.60;1.00
262;DHT22;114;48.260;10.988;2022-08-01T04:23:18;18.50;2.20
262;DHT22;114;48.260;10.988;2022-08-01T04:25:46;18.30;3.10
262;DHT22;114;48.260;10.988;2022-08-01T04:28:14;18.20;3.90
262;DHT22;114;48.260;10.988;2022-08-01T04:30:44;18.00;5.10
262;DHT22;114;48.260;10.988;2022-08-01T04:33:14;17.90;6.20
262;DHT22;114;48.260;10.988;2022-08-01T04:35:44;17.80;7.10
262;DHT22;114;48.260;10.988;2022-08-01T04:38:13;17.80;8.30
262;DHT22;114;48.260;10.988;2022-08-01T04:40:40;17.80;8.10
262;DHT22;114;48.260;10.988;2022-08-01T04:43:07;17.80;7.50
262;DHT22;114;48.260;10.988;2022-08-01T04:45:34;17.80;7.60
262;DHT22;114;48.260;10.988;2022-08-01T04:48:00;17.70;8.20
262;DHT22;114;48.260;10.988;2022-08-01T04:50:29;17.70;8.20
262;DHT22;114;48.260;10.988;2022-08-01T04:52:57;17.70;8.20
262;DHT22;114;48.260;10.988;2022-08-01T04:55:25;17.80;8.50
262;DHT22;114;48.260;10.988;2022-08-01T04:57:51;17.80;8.80
262;DHT22;114;48.260;10.988;2022-08-01T05:00:17;17.80;9.00
262;DHT22;114;48.260;10.988;2022-08-01T05:02:43;17.80;9.90
262;DHT22;114;48.260;10.988;2022-08-01T05:05:08;17.80;9.20
262;DHT22;114;48.260;10.988;2022-08-01T05:07:35;17.80;9.80
262;DHT22;114;48.260;10.988;2022-08-01T05:10:03;17.80;10.90
262;DHT22;114;48.260;10.988;2022-08-01T05:12:32;17.80;12.50
262;DHT22;114;48.260;10.988;2022-08-01T05:14:59;17.80;14.20
262;DHT22;114;48.260;10.988;2022-08-01T05:17:25;17.80;15.40
262;DHT22;114;48.260;10.988;2022-08-01T05:19:51;17.80;14.90
262;DHT22;114;48.260;10.988;2022-08-01T05:22:17;17.90;14.40
262;DHT22;114;48.260;10.988;2022-08-01T05:24:42;18.00;10.90
262;DHT22;114;48.260;10.988;2022-08-01T05:27:08;18.00;10.70
262;DHT22;114;48.260;10.988;2022-08-01T05:29:34;18.00;8.50
262;DHT22;114;48.260;10.988;2022-08-01T05:32:01;18.00;8.40
262;DHT22;114;48.260;10.988;2022-08-01T05:34:27;18.10;9.80
262;DHT22;114;48.260;10.988;2022-08-01T05:36:53;18.10;8.70
262;DHT22;114;48.260;10.988;2022-08-01T05:39:20;18.10;7.60
262;DHT22;114;48.260;10.988;2022-08-01T05:41:46;18.30;6.60
262;DHT22;114;48.260;10.988;2022-08-01T05:44:11;18.50;5.70
262;DHT22;114;48.260;10.988;2022-08-01T05:46:37;18.60;4.40
262;DHT22;114;48.260;10.988;2022-08-01T05:49:06;18.80;4.60
262;DHT22;114;48.260;10.988;2022-08-01T05:51:34;19.00;3.80
262;DHT22;114;48.260;10.988;2022-08-01T05:54:00;19.20;1.60
262;DHT22;114;48.260;10.988;2022-08-01T05:56:26;19.50;1.00
262;DHT22;114;48.260;10.988;2022-08-01T05:58:52;19.70;1.00
262;DHT22;114;48.260;10.988;2022-08-01T06:01:18;19.80;1.00
262;DHT22;114;48.260;10.988;2022-08-01T06:03:44;20.10;1.00
262;DHT22;114;48.260;10.988;2022-08-01T06:06:10;20.10;1.00
262;DHT22;114;48.260;10.988;2022-08-01T06:08:36;20.20;1.00
262;DHT22;114;48.260;10.988;2022-08-01T06:11:02;20.30;1.00
262;DHT22;114;48.260;10.988;2022-08-01T06:13:28;20.40;1.00
262;DHT22;114;48.260;10.988;2022-08-01T06:15:53;20.50;1.00
262;DHT22;114;48.260;10.988;2022-08-01T06:18:19;20.50;1.00
262;DHT22;114;48.260;10.988;2022-08-01T06:20:45;20.60;1.00
262;DHT22;114;48.260;10.988;2022-08-01T06:23:11;20.60;1.00
262;DHT22;114;48.260;10.988;2022-08-01T06:25:40;20.70;1.00
262;DHT22;114;48.260;10.988;2022-08-01T06:28:05;20.80;1.00
262;DHT22;114;48.260;10.988;2022-08-01T06:30:31;20.90;1.00
262;DHT22;114;48.260;10.988;2022-08-01T06:32:57;20.90;1.00
262;DHT22;114;48.260;10.988;2022-08-01T06:35:24;20.90;1.00
262;DHT22;114;48.260;10.988;2022-08-01T06:37:49;21.00;1.00
262;DHT22;114;48.260;10.988;2022-08-01T06:40:15;21.20;1.00
262;DHT22;114;48.260;10.988;2022-08-01T06:42:41;21.30;1.00
262;DHT22;114;48.260;10.988;2022-08-01T06:45:13;21.30;1.00
262;DHT22;114;48.260;10.988;2022-08-01T06:47:41;21.50;1.00
262;DHT22;114;48.260;10.988;2022-08-01T06:50:08;21.70;1.00
262;DHT22;114;48.260;10.988;2022-08-01T06:52:34;21.60;1.00
262;DHT22;114;48.260;10.988;2022-08-01T06:55:00;21.70;1.00
262;DHT22;114;48.260;10.988;2022-08-01T06:57:26;21.70;1.00
262;DHT22;114;48.260;10.988;2022-08-01T06:59:53;21.70;1.00
262;DHT22;114;48.260;10.988;2022-08-01T07:02:19;21.80;1.00
262;DHT22;114;48.260;10.988;2022-08-01T07:04:44;22.00;1.00
262;DHT22;114;48.260;10.988;2022-08-01T07:07:10;22.10;1.00
262;DHT22;114;48.260;10.988;2022-08-01T07:09:36;22.10;1.00
262;DHT22;114;48.260;10.988;2022-08-01T07:12:03;22.00;1.00
262;DHT22;114;48.260;10.988;2022-08-01T07:14:29;22.10;1.00
262;DHT22;114;48.260;10.988;2022-08-01T07:16:54;21.90;1.00
262;DHT22;114;48.260;10.988;2022-08-01T07:19:20;21.90;1.00
262;DHT22;114;48.260;10.988;2022-08-01T07:21:46;21.90;1.00
262;DHT22;114;48.260;10.988;2022-08-01T07:24:13;22.10;1.00
262;DHT22;114;48.260;10.988;2022-08-01T07:26:43;22.20;1.00
262;DHT22;114;48.260;10.988;2022-08-01T07:29:09;22.30;1.00
262;DHT22;114;48.260;10.988;2022-08-01T07:31:35;22.40;1.00
262;DHT22;114;48.260;10.988;2022-08-01T07:34:01;22.50;1.00
262;DHT22;114;48.260;10.988;2022-08-01T07:36:26;22.40;1.00
262;DHT22;114;48.260;10.988;2022-08-01T07:38:52;22.40;1.00
262;DHT22;114;48.260;10.988;2022-08-01T07:41:18;22.60;1.00
262;DHT22;114;48.260;10.988;2022-08-01T07:43:44;22.70;1.00
262;DHT22;114;48.260;10.988;2022-08-01T07:46:09;22.70;1.00
262;DHT22;114;48.260;10.988;2022-08-01T07:48:35;22.60;1.00
262;DHT22;114;48.260;10.988;2022-08-01T07:51:01;22.90;1.00
262;DHT22;114;48.260;10.988;2022-08-01T07:53:26;23.00;1.00
262;DHT22;114;48.260;10.988;2022-08-01T07:55:55;22.80;1.00
262;DHT22;114;48.260;10.988;2022-08-01T07:58:24;22.90;1.00
262;DHT22;114;48.260;10.988;2022-08-01T08:00:49;23.10;1.00
262;DHT22;114;48.260;10.988;2022-08-01T08:03:15;22.90;1.00
262;DHT22;114;48.260;10.988;2022-08-01T08:05:40;22.80;1.00
262;DHT22;114;48.260;10.988;2022-08-01T08:08:07;22.90;1.00
262;DHT22;114;48.260;10.988;2022-08-01T08:10:34;23.00;1.00
262;DHT22;114;48.260;10.988;2022-08-01T08:13:00;22.90;1.00
262;DHT22;114;48.260;10.988;2022-08-01T08:15:29;22.90;1.00
262;DHT22;114;48.260;10.988;2022-08-01T08:17:54;23.00;1.00
262;DHT22;114;48.260;10.988;2022-08-01T08:20:20;23.20;1.00
262;DHT22;114;48.260;10.988;2022-08-01T08:22:51;23.10;1.00
262;DHT22;114;48.260;10.988;2022-08-01T08:25:16;23.10;1.00
262;DHT22;114;48.260;10.988;2022-08-01T08:27:45;23.40;1.00
262;DHT22;114;48.260;10.988;2022-08-01T08:30:12;23.30;1.00
262;DHT22;114;48.260;10.988;2022-08-01T08:32:38;23.40;1.00
262;DHT22;114;48.260;10.988;2022-08-01T08:35:04;23.50;1.00
262;DHT22;114;48.260;10.988;2022-08-01T08:37:31;23.40;1.00
262;DHT22;114;48.260;10.988;2022-08-01T08:39:56;23.40;1.00
262;DHT22;114;48.260;10.988;2022-08-01T08:42:22;23.60;1.00
262;DHT22;114;48.260;10.988;2022-08-01T08:44:48;23.50;1.00
262;DHT22;114;48.260;10.988;2022-08-01T08:47:15;23.60;1.00
262;DHT22;114;48.260;10.988;2022-08-01T08:49:43;23.70;1.00
262;DHT22;114;48.260;10.988;2022-08-01T08:52:10;23.60;1.00
262;DHT22;114;48.260;10.988;2022-08-01T08:54:38;23.70;1.00
262;DHT22;114;48.260;10.988;2022-08-01T08:57:04;23.90;1.00
262;DHT22;114;48.260;10.988;2022-08-01T08:59:31;23.90;1.00
262;DHT22;114;48.260;10.988;2022-08-01T09:01:58;23.70;1.00
262;DHT22;114;48.260;10.988;2022-08-01T09:04:25;24.00;1.00
262;DHT22;114;48.260;10.988;2022-08-01T09:06:52;24.20;1.00
262;DHT22;114;48.260;10.988;2022-08-01T09:09:17;24.20;1.00
262;DHT22;114;48.260;10.988;2022-08-01T09:11:43;24.50;1.00
262;DHT22;114;48.260;10.988;2022-08-01T09:14:15;24.30;1.00
262;DHT22;114;48.260;10.988;2022-08-01T09:17:05;24.60;1.00
262;DHT22;114;48.260;10.988;2022-08-01T09:19:38;24.70;1.00
262;DHT22;114;48.260;10.988;2022-08-01T09:22:07;25.00;1.00
262;DHT22;114;48.260;10.988;2022-08-01T09:24:34;24.80;1.00
262;DHT22;114;48.260;10.988;2022-08-01T09:27:01;24.90;1.00
262;DHT22;114;48.260;10.988;2022-08-01T09:29:39;24.60;1.00
262;DHT22;114;48.260;10.988;2022-08-01T09:32:08;25.00;1.00
262;DHT22;114;48.260;10.988;2022-08-01T09:34:35;25.40;1.00
262;DHT22;114;48.260;10.988;2022-08-01T09:37:02;25.20;1.00
262;DHT22;114;48.260;10.988;2022-08-01T09:39:36;25.20;1.00
262;DHT22;114;48.260;10.988;2022-08-01T09:42:26;25.00;1.00
262;DHT22;114;48.260;10.988;2022-08-01T09:44:52;25.00;1.00
262;DHT22;114;48.260;10.988;2022-08-01T09:47:19;25.40;1.00
262;DHT22;114;48.260;10.988;2022-08-01T09:49:53;25.50;1.00
262;DHT22;114;48.260;10.988;2022-08-01T09:52:26;25.00;1.00
262;DHT22;114;48.260;10.988;2022-08-01T09:54:56;24.90;1.00
262;DHT22;114;48.260;10.988;2022-08-01T09:57:22;25.40;1.00
262;DHT22;114;48.260;10.988;2022-08-01T09:59:54;25.70;1.00
262;DHT22;114;48.260;10.988;2022-08-01T10:04:56;25.70;1.00
262;DHT22;114;48.260;10.988;2022-08-01T10:07:22;25.60;1.00
262;DHT22;114;48.260;10.988;2022-08-01T10:09:48;25.70;1.00
262;DHT22;114;48.260;10.988;2022-08-01T10:12:21;25.60;1.00
262;DHT22;114;48.260;10.988;2022-08-01T10:14:50;25.60;1.00
262;DHT22;114;48.260;10.988;2022-08-01T10:17:18;25.70;1.00
262;DHT22;114;48.260;10.988;2022-08-01T10:19:49;26.10;1.00
262;DHT22;114;48.260;10.988;2022-08-01T10:22:16;26.70;1.00
262;DHT22;114;48.260;10.988;2022-08-01T10:24:46;26.80;1.00
262;DHT22;114;48.260;10.988;2022-08-01T10:27:15;27.10;1.00
262;DHT22;114;48.260;10.988;2022-08-01T10:29:56;26.80;1.00
262;DHT22;114;48.260;10.988;2022-08-01T10:32:22;26.40;1.00
262;DHT22;114;48.260;10.988;2022-08-01T10:34:49;26.80;1.00
262;DHT22;114;48.260;10.988;2022-08-01T10:37:15;27.00;1.00
262;DHT22;114;48.260;10.988;2022-08-01T10:39:42;27.10;1.00
262;DHT22;114;48.260;10.988;2022-08-01T10:42:10;27.40;1.00
262;DHT22;114;48.260;10.988;2022-08-01T10:44:37;27.10;1.00
262;DHT22;114;48.260;10.988;2022-08-01T10:47:10;27.90;1.00
262;DHT22;114;48.260;10.988;2022-08-01T10:49:58;27.60;1.00
262;DHT22;114;48.260;10.988;2022-08-01T10:52:27;27.40;1.00
262;DHT22;114;48.260;10.988;2022-08-01T10:55:08;28.10;1.00
262;DHT22;114;48.260;10.988;2022-08-01T10:57:47;28.10;1.00
262;DHT22;114;48.260;10.988;2022-08-01T11:00:22;28.70;1.00
262;DHT22;114;48.260;10.988;2022-08-01T11:03:02;29.10;1.00
262;DHT22;114;48.260;10.988;2022-08-01T11:05:33;28.50;1.00
262;DHT22;114;48.260;10.988;2022-08-01T11:08:22;29.00;1.00
262;DHT22;114;48.260;10.988;2022-08-01T11:10:48;28.80;1.00
262;DHT22;114;48.260;10.988;2022-08-01T11:13:13;28.60;1.00
262;DHT22;114;48.260;10.988;2022-08-01T11:15:40;28.40;1.00
262;DHT22;114;48.260;10.988;2022-08-01T11:20:58;28.70;1.00
262;DHT22;114;48.260;10.988;2022-08-01T11:23:25;28.60;1.00
262;DHT22;114;48.260;10.988;2022-08-01T11:28:23;28.80;1.00
262;DHT22;114;48.260;10.988;2022-08-01T11:30:52;27.90;1.00
262;DHT22;114;48.260;10.988;2022-08-01T11:44:03;29.10;1.00
262;DHT22;114;48.260;10.988;2022-08-01T11:49:32;29.20;1.00
262;DHT22;114;48.260;10.988;2022-08-01T11:52:08;29.60;1.00
262;DHT22;114;48.260;10.988;2022-08-01T11:54:38;29.60;1.00
262;DHT22;114;48.260;10.988;2022-08-01T11:57:09;30.50;1.00
262;DHT22;114;48.260;10.988;2022-08-01T11:59:43;30.80;1.00
262;DHT22;114;48.260;10.988;2022-08-01T12:02:28;30.00;1.00
262;DHT22;114;48.260;10.988;2022-08-01T12:05:03;30.70;1.00
262;DHT22;114;48.260;10.988;2022-08-01T12:07:30;29.70;1.00
262;DHT22;114;48.260;10.988;2022-08-01T12:12:28;28.90;1.00
262;DHT22;114;48.260;10.988;2022-08-01T12:14:57;28.10;1.00
262;DHT22;114;48.260;10.988;2022-08-01T12:17:38;27.70;1.00
262;DHT22;114;48.260;10.988;2022-08-01T12:20:09;27.80;1.00
262;DHT22;114;48.260;10.988;2022-08-01T12:22:38;27.70;1.00
262;DHT22;114;48.260;10.988;2022-08-01T12:25:08;27.60;1.00
262;DHT22;114;48.260;10.988;2022-08-01T12:27:35;28.00;1.00
262;DHT22;114;48.260;10.988;2022-08-01T12:30:03;28.90;1.00
262;DHT22;114;48.260;10.988;2022-08-01T12:32:32;29.00;1.00
262;DHT22;114;48.260;10.988;2022-08-01T12:35:12;30.30;1.00
262;DHT22;114;48.260;10.988;2022-08-01T12:37:49;31.60;1.00
262;DHT22;114;48.260;10.988;2022-08-01T12:40:20;32.90;1.00
262;DHT22;114;48.260;10.988;2022-08-01T12:42:50;32.20;1.00
262;DHT22;114;48.260;10.988;2022-08-01T12:45:23;31.30;1.00
262;DHT22;114;48.260;10.988;2022-08-01T12:47:50;30.80;1.00
262;DHT22;114;48.260;10.988;2022-08-01T12:50:20;30.00;1.00
262;DHT22;114;48.260;10.988;2022-08-01T12:52:47;29.50;1.00
262;DHT22;114;48.260;10.988;2022-08-01T12:55:21;28.60;1.00
262;DHT22;114;48.260;10.988;2022-08-01T12:57:49;27.70;1.00
262;DHT22;114;48.260;10.988;2022-08-01T13:00:22;27.20;1.00
262;DHT22;114;48.260;10.988;2022-08-01T13:03:02;26.60;1.00
262;DHT22;114;48.260;10.988;2022-08-01T13:05:47;26.50;1.00
262;DHT22;114;48.260;10.988;2022-08-01T13:08:18;26.20;1.00
262;DHT22;114;48.260;10.988;2022-08-01T13:10:45;26.50;1.00
262;DHT22;114;48.260;10.988;2022-08-01T13:13:12;26.70;1.00
262;DHT22;114;48.260;10.988;2022-08-01T13:15:40;27.60;1.00
262;DHT22;114;48.260;10.988;2022-08-01T13:18:29;29.80;1.00
262;DHT22;114;48.260;10.988;2022-08-01T13:21:26;30.50;1.00
262;DHT22;114;48.260;10.988;2022-08-01T13:24:05;29.30;1.00
262;DHT22;114;48.260;10.988;2022-08-01T13:29:13;31.30;1.00
262;DHT22;114;48.260;10.988;2022-08-01T13:31:39;31.30;1.00
262;DHT22;114;48.260;10.988;2022-08-01T13:34:06;31.10;1.00
262;DHT22;114;48.260;10.988;2022-08-01T13:36:32;30.20;1.00
262;DHT22;114;48.260;10.988;2022-08-01T13:38:59;30.00;1.00
262;DHT22;114;48.260;10.988;2022-08-01T13:41:44;29.40;1.00
262;DHT22;114;48.260;10.988;2022-08-01T13:44:10;28.70;1.00
262;DHT22;114;48.260;10.988;2022-08-01T13:46:40;28.10;1.00
262;DHT22;114;48.260;10.988;2022-08-01T13:49:07;27.60;1.00
262;DHT22;114;48.260;10.988;2022-08-01T13:51:33;27.30;1.00
262;DHT22;114;48.260;10.988;2022-08-01T13:53:59;27.10;1.00
262;DHT22;114;48.260;10.988;2022-08-01T13:56:26;26.60;1.00
262;DHT22;114;48.260;10.988;2022-08-01T13:58:53;26.50;1.00
262;DHT22;114;48.260;10.988;2022-08-01T14:01:19;26.30;1.00
262;DHT22;114;48.260;10.988;2022-08-01T14:03:46;26.00;1.00
262;DHT22;114;48.260;10.988;2022-08-01T14:06:12;25.80;1.00
262;DHT22;114;48.260;10.988;2022-08-01T14:08:39;25.70;1.00
262;DHT22;114;48.260;10.988;2022-08-01T14:11:05;25.70;1.00
262;DHT22;114;48.260;10.988;2022-08-01T14:13:30;25.60;1.00
262;DHT22;114;48.260;10.988;2022-08-01T14:15:58;25.60;1.00
262;DHT22;114;48.260;10.988;2022-08-01T14:18:25;25.50;1.00
262;DHT22;114;48.260;10.988;2022-08-01T14:20:51;25.40;1.00
262;DHT22;114;48.260;10.988;2022-08-01T14:23:16;24.50;1.00
262;DHT22;114;48.260;10.988;2022-08-01T14:25:42;24.00;1.00
262;DHT22;114;48.260;10.988;2022-08-01T14:28:09;23.60;1.00
262;DHT22;114;48.260;10.988;2022-08-01T14:30:36;23.60;1.00
262;DHT22;114;48.260;10.988;2022-08-01T14:33:02;23.50;1.00
262;DHT22;114;48.260;10.988;2022-08-01T14:35:27;23.40;1.00
262;DHT22;114;48.260;10.988;2022-08-01T14:37:54;23.30;1.00
262;DHT22;114;48.260;10.988;2022-08-01T14:40:20;23.30;1.00
262;DHT22;114;48.260;10.988;2022-08-01T14:42:46;23.20;1.00
262;DHT22;114;48.260;10.988;2022-08-01T14:45:13;23.20;1.00
262;DHT22;114;48.260;10.988;2022-08-01T14:47:42;23.20;1.00
262;DHT22;114;48.260;10.988;2022-08-01T14:50:11;23.20;1.00
262;DHT22;114;48.260;10.988;2022-08-01T14:52:38;23.20;1.00
262;DHT22;114;48.260;10.988;2022-08-01T14:55:05;23.10;1.00
262;DHT22;114;48.260;10.988;2022-08-01T14:57:31;23.10;1.00
262;DHT22;114;48.260;10.988;2022-08-01T14:59:57;23.00;1.00
262;DHT22;114;48.260;10.988;2022-08-01T15:02:23;23.00;1.00
262;DHT22;114;48.260;10.988;2022-08-01T15:04:49;22.90;1.00
262;DHT22;114;48.260;10.988;2022-08-01T15:07:16;22.90;1.00
262;DHT22;114;48.260;10.988;2022-08-01T15:09:42;22.90;1.00
262;DHT22;114;48.260;10.988;2022-08-01T15:12:09;22.80;1.00
262;DHT22;114;48.260;10.988;2022-08-01T15:14:35;22.80;1.00
262;DHT22;114;48.260;10.988;2022-08-01T15:17:21;22.80;1.00
262;DHT22;114;48.260;10.988;2022-08-01T15:19:50;22.80;1.00
262;DHT22;114;48.260;10.988;2022-08-01T15:22:16;22.80;1.00
262;DHT22;114;48.260;10.988;2022-08-01T15:24:42;22.80;1.00
262;DHT22;114;48.260;10.988;2022-08-01T15:27:09;22.80;1.00
262;DHT22;114;48.260;10.988;2022-08-01T15:29:35;22.80;1.00
262;DHT22;114;48.260;10.988;2022-08-01T15:32:03;22.80;1.00
262;DHT22;114;48.260;10.988;2022-08-01T15:34:30;23.00;1.00
262;DHT22;114;48.260;10.988;2022-08-01T15:36:55;23.10;1.00
262;DHT22;114;48.260;10.988;2022-08-01T15:39:21;23.20;1.00
262;DHT22;114;48.260;10.988;2022-08-01T15:41:47;23.20;1.00
262;DHT22;114;48.260;10.988;2022-08-01T15:44:13;23.50;1.00
262;DHT22;114;48.260;10.988;2022-08-01T15:46:39;23.60;1.00
262;DHT22;114;48.260;10.988;2022-08-01T15:49:05;23.60;1.00
262;DHT22;114;48.260;10.988;2022-08-01T15:51:32;23.70;1.00
262;DHT22;114;48.260;10.988;2022-08-01T15:53:58;23.60;1.00
262;DHT22;114;48.260;10.988;2022-08-01T15:56:29;23.50;1.00
262;DHT22;114;48.260;10.988;2022-08-01T15:58:55;23.20;1.00
262;DHT22;114;48.260;10.988;2022-08-01T16:01:21;23.10;1.00
262;DHT22;114;48.260;10.988;2022-08-01T16:03:47;23.00;1.00
262;DHT22;114;48.260;10.988;2022-08-01T16:06:13;23.00;1.00
262;DHT22;114;48.260;10.988;2022-08-01T16:08:39;23.10;1.00
262;DHT22;114;48.260;10.988;2022-08-01T16:11:05;23.20;1.00
262;DHT22;114;48.260;10.988;2022-08-01T16:13:31;23.40;1.00
262;DHT22;114;48.260;10.988;2022-08-01T16:15:56;23.70;1.00
262;DHT22;114;48.260;10.988;2022-08-01T16:18:24;24.10;1.00
262;DHT22;114;48.260;10.988;2022-08-01T16:20:49;24.60;1.00
262;DHT22;114;48.260;10.988;2022-08-01T16:23:15;25.10;1.00
262;DHT22;114;48.260;10.988;2022-08-01T16:25:42;25.70;1.00
262;DHT22;114;48.260;10.988;2022-08-01T16:28:09;26.70;1.00
262;DHT22;114;48.260;10.988;2022-08-01T16:30:35;28.00;1.00
262;DHT22;114;48.260;10.988;2022-08-01T16:33:01;28.50;1.00
262;DHT22;114;48.260;10.988;2022-08-01T16:35:29;28.40;1.00
262;DHT22;114;48.260;10.988;2022-08-01T16:37:55;28.10;1.00
262;DHT22;114;48.260;10.988;2022-08-01T16:40:23;27.60;1.00
262;DHT22;114;48.260;10.988;2022-08-01T16:42:49;27.00;1.00
262;DHT22;114;48.260;10.988;2022-08-01T16:45:15;26.40;1.00
262;DHT22;114;48.260;10.988;2022-08-01T16:47:42;25.90;1.00
262;DHT22;114;48.260;10.988;2022-08-01T16:50:10;25.40;1.00
262;DHT22;114;48.260;10.988;2022-08-01T16:52:35;25.20;1.00
262;DHT22;114;48.260;10.988;2022-08-01T16:55:01;25.00;1.00
262;DHT22;114;48.260;10.988;2022-08-01T16:57:29;24.90;1.00
262;DHT22;114;48.260;10.988;2022-08-01T17:00:11;24.60;1.00
262;DHT22;114;48.260;10.988;2022-08-01T17:02:39;24.70;1.00
262;DHT22;114;48.260;10.988;2022-08-01T17:05:06;24.60;1.00
262;DHT22;114;48.260;10.988;2022-08-01T17:07:33;24.50;1.00
262;DHT22;114;48.260;10.988;2022-08-01T17:09:59;24.20;1.00
262;DHT22;114;48.260;10.988;2022-08-01T17:12:26;24.20;1.00